Time;durP1;ratioP1;P1;durP2;ratioP2;P2;SDS_P1;SDS_P2;PMS_P1;PMS_P2;Temp;Humidity;BMP_temperature;BMP_pressure;BME280_temperature;BME280_humidity;BME280_pressure;Samples;Min_cycle;Max_cycle;Signal;HPM_P1;HPM_P2
2022/04/22 00:00:29;;;;;;;11.27;10.10;;;;;;;7.77;100.00;95106.53;5110324;27;20157;-46
2022/04/22 00:02:57;;;;;;;10.90;9.45;;;;;;;7.73;100.00;95109.63;5117195;27;20063;-48
2022/04/22 00:05:26;;;;;;;12.13;9.90;;;;;;;7.70;100.00;95104.69;5121806;27;20083;-45
2022/04/22 00:07:54;;;;;;;10.75;9.50;;;;;;;7.69;100.00;95103.88;5118519;27;20039;-45
2022/04/22 00:10:23;;;;;;;10.63;9.52;;;;;;;7.58;100.00;95105.00;5102804;27;20067;-46
2022/04/22 00:12:51;;;;;;;12.73;9.45;;;;;;;7.61;100.00;95098.63;5123390;27;20094;-43
2022/04/22 00:15:20;;;;;;;11.77;9.30;;;;;;;7.61;100.00;95096.81;5122633;27;20079;-47
2022/04/22 00:17:50;;;;;;;10.55;9.50;;;;;;;7.60;100.00;95096.97;5123882;27;20059;-44
2022/04/22 00:20:19;;;;;;;10.75;9.75;;;;;;;7.33;100.00;95093.63;5116502;27;20051;-48
2022/04/22 00:22:47;;;;;;;11.10;9.93;;;;;;;7.42;100.00;95088.41;5116617;27;20073;-44
2022/04/22 00:25:15;;;;;;;11.88;9.98;;;;;;;7.36;100.00;95082.81;5121542;27;20070;-48
2022/04/22 00:27:44;;;;;;;11.13;9.80;;;;;;;7.36;100.00;95079.34;5119490;27;20075;-45
2022/04/22 00:30:13;;;;;;;10.73;9.57;;;;;;;7.34;100.00;95084.78;5127587;27;20071;-44
2022/04/22 00:32:42;;;;;;;10.50;9.40;;;;;;;7.31;100.00;95084.25;5122693;27;20038;-45
2022/04/22 00:35:11;;;;;;;10.90;9.77;;;;;;;7.27;100.00;95073.28;5124331;27;20071;-46
2022/04/22 00:37:42;;;;;;;10.90;9.80;;;;;;;7.39;100.00;95076.41;5123716;27;20066;-47
2022/04/22 00:40:11;;;;;;;12.10;10.48;;;;;;;7.24;100.00;95070.97;5120571;27;20055;-44
2022/04/22 00:42:39;;;;;;;12.55;9.80;;;;;;;7.30;100.00;95074.75;5117862;27;20083;-48
2022/04/22 00:45:09;;;;;;;12.20;9.80;;;;;;;7.23;100.00;95064.09;5126293;27;20087;-45
2022/04/22 00:47:38;;;;;;;11.32;9.93;;;;;;;7.16;100.00;95063.09;5123118;27;20279;-43
2022/04/22 00:50:06;;;;;;;11.43;9.98;;;;;;;7.21;100.00;95054.72;5122034;27;20059;-46
2022/04/22 00:52:36;;;;;;;12.55;10.38;;;;;;;7.25;100.00;95049.00;5121015;27;21603;-44
2022/04/22 00:55:06;;;;;;;11.40;9.87;;;;;;;7.12;100.00;95048.63;5120179;27;20081;-44
2022/04/22 00:57:34;;;;;;;12.30;9.70;;;;;;;7.06;100.00;95047.47;5127012;27;20585;-50
2022/04/22 01:00:05;;;;;;;11.50;10.30;;;;;;;7.05;100.00;95045.00;5127286;27;20066;-46
2022/04/22 01:02:33;;;;;;;12.00;10.15;;;;;;;7.09;100.00;95046.34;5112304;27;20051;-47
2022/04/22 01:10:34;;;;;;;12.63;10.75;;;;;;;7.06;100.00;95034.38;5116052;28;20062;-44
2022/04/22 01:13:03;;;;;;;12.35;10.60;;;;;;;7.01;100.00;95026.16;5121063;27;20070;-45
2022/04/22 01:15:32;;;;;;;12.60;10.95;;;;;;;6.90;100.00;95026.44;5123871;27;20082;-46
2022/04/22 01:18:00;;;;;;;12.43;10.77;;;;;;;6.98;100.00;95026.44;5124610;27;20070;-45
2022/04/22 01:20:28;;;;;;;12.02;10.57;;;;;;;6.94;100.00;95025.13;5119499;27;20063;-44
2022/04/22 01:22:58;;;;;;;11.77;10.50;;;;;;;6.88;100.00;95023.97;5122222;27;20466;-43
2022/04/22 01:25:27;;;;;;;13.38;10.65;;;;;;;6.86;100.00;95019.88;5122863;27;20063;-44
2022/04/22 01:27:56;;;;;;;12.65;11.27;;;;;;;6.76;100.00;95022.59;5121897;27;20100;-45
2022/04/22 01:30:25;;;;;;;12.48;10.85;;;;;;;6.84;100.00;95020.00;5123204;27;20047;-45
2022/04/22 01:32:56;;;;;;;13.00;11.38;;;;;;;6.83;100.00;95014.94;5128035;27;20090;-50
2022/04/22 01:35:25;;;;;;;14.77;11.85;;;;;;;6.73;100.00;95011.63;5121015;27;20081;-53
2022/04/22 01:37:53;;;;;;;14.00;11.57;;;;;;;6.67;100.00;95013.06;5124909;27;20038;-50
2022/04/22 01:40:23;;;;;;;12.48;11.18;;;;;;;6.57;100.00;95000.09;5125029;27;20058;-45
2022/04/22 01:42:51;;;;;;;13.67;11.40;;;;;;;6.66;100.00;94998.31;5115678;27;20067;-45
2022/04/22 01:45:20;;;;;;;15.05;11.80;;;;;;;6.53;100.00;94984.84;5122098;27;20071;-48
2022/04/22 01:47:48;;;;;;;13.05;11.43;;;;;;;6.48;100.00;94982.69;5104714;28;20521;-47
2022/04/22 01:50:17;;;;;;;13.73;11.82;;;;;;;6.42;100.00;94986.75;5127264;27;20074;-47
2022/04/22 01:52:45;;;;;;;13.88;11.43;;;;;;;6.42;100.00;94991.16;5113616;27;20031;-45
2022/04/22 01:55:14;;;;;;;15.23;12.43;;;;;;;6.36;100.00;94979.50;5120055;27;20070;-48
2022/04/22 01:57:44;;;;;;;14.43;12.40;;;;;;;6.36;100.00;94989.16;5127449;27;20597;-46
2022/04/22 02:00:13;;;;;;;16.77;12.90;;;;;;;6.39;100.00;94981.81;5130973;27;20086;-46
2022/04/22 02:02:41;;;;;;;13.95;12.25;;;;;;;6.15;100.00;94987.72;5122628;27;20888;-45
2022/04/22 02:05:10;;;;;;;15.18;12.68;;;;;;;6.21;100.00;94977.63;5126614;27;20075;-50
2022/04/22 02:07:41;;;;;;;15.45;12.90;;;;;;;6.18;100.00;94983.97;5122300;27;20587;-45
2022/04/22 02:10:10;;;;;;;22.75;13.48;;;;;;;6.12;100.00;94981.97;5134351;27;20065;-42
2022/04/22 02:12:38;;;;;;;16.27;12.68;;;;;;;6.18;100.00;94976.13;5127421;27;20484;-51
2022/04/22 02:15:09;;;;;;;14.80;13.20;;;;;;;6.21;100.00;94973.22;5123783;27;21563;-47
2022/04/22 02:17:37;;;;;;;;;;;;;;;6.12;100.00;94982.78;5126092;27;20588;-51
2022/04/22 02:20:06;;;;;;;18.15;13.20;;;;;;;6.21;100.00;94969.78;5124062;27;19927;-45
2022/04/22 02:22:35;;;;;;;17.60;13.60;;;;;;;6.23;100.00;94962.56;5127297;27;20078;-46
2022/04/22 02:25:04;;;;;;;15.85;13.40;;;;;;;6.17;100.00;94971.88;5123196;27;20098;-47
2022/04/22 02:30:20;;;;;;;15.70;13.65;;;;;;;6.05;100.00;94962.63;5121407;27;21395;-47
2022/04/22 02:32:48;;;;;;;15.52;13.68;;;;;;;6.07;100.00;94958.91;5118733;27;20454;-45
2022/04/22 02:35:17;;;;;;;19.15;13.82;;;;;;;6.17;100.00;94959.63;5122639;27;20058;-45
2022/04/22 02:37:45;;;;;;;17.67;14.30;;;;;;;6.11;100.00;94964.63;5122066;27;20085;-44
2022/04/22 02:45:26;;;;;;;17.23;14.27;;;;;;;5.98;100.00;94959.81;5120876;27;20055;-43
2022/04/22 02:45:51;;;;;;;17.35;14.52;;;;;;;6.01;100.00;94958.69;5131207;27;20090;-49
2022/04/22 02:48:20;;;;;;;17.45;13.77;;;;;;;5.99;100.00;94956.25;5122856;27;20482;-48
2022/04/22 02:50:49;;;;;;;19.90;15.50;;;;;;;6.00;100.00;94959.66;5127923;27;20066;-48
2022/04/22 02:53:17;;;;;;;19.02;15.57;;;;;;;5.99;100.00;94953.63;5125081;27;20113;-47
2022/04/22 02:55:50;;;;;;;17.27;14.50;;;;;;;5.89;100.00;94947.63;5112644;27;20045;-46
2022/04/22 02:58:19;;;;;;;17.63;14.60;;;;;;;5.77;100.00;94949.66;5108035;27;20124;-49
2022/04/22 03:00:48;;;;;;;18.27;15.70;;;;;;;5.76;100.00;94944.59;5124972;27;20504;-45
2022/04/22 03:03:21;;;;;;;20.52;16.10;;;;;;;5.75;100.00;94945.53;5124795;27;20071;-47
2022/04/22 03:05:49;;;;;;;20.80;14.85;;;;;;;5.62;100.00;94940.72;5124061;27;20465;-47
2022/04/22 03:08:18;;;;;;;22.45;17.10;;;;;;;5.67;100.00;94936.66;5131837;27;20062;-52
2022/04/22 03:10:48;;;;;;;22.65;16.75;;;;;;;5.64;100.00;94933.53;5123431;27;20040;-45
2022/04/22 03:13:16;;;;;;;20.87;16.13;;;;;;;5.61;100.00;94933.84;5128008;27;20449;-48
2022/04/22 03:15:45;;;;;;;19.42;15.85;;;;;;;5.60;100.00;94932.19;5125257;27;20532;-45
2022/04/22 03:18:14;;;;;;;19.30;15.95;;;;;;;5.58;100.00;94921.09;5130682;27;20079;-48
2022/04/22 03:20:43;;;;;;;21.45;16.95;;;;;;;5.63;100.00;94930.09;5125785;27;20548;-48
2022/04/22 03:23:12;;;;;;;23.67;17.05;;;;;;;5.58;100.00;94934.16;5127254;27;20055;-46
2022/04/22 03:25:41;;;;;;;21.23;17.25;;;;;;;5.57;100.00;94930.72;5123644;27;20075;-47
2022/04/22 03:28:09;;;;;;;20.95;17.20;;;;;;;5.68;100.00;94927.06;5125110;27;20058;-44
2022/04/22 03:30:38;;;;;;;21.67;17.75;;;;;;;5.71;100.00;94921.50;5125666;27;20553;-46
2022/04/22 03:33:07;;;;;;;24.13;17.88;;;;;;;5.60;100.00;94925.19;5119659;27;20194;-45
2022/04/22 03:35:35;;;;;;;22.27;16.77;;;;;;;5.56;100.00;94912.56;5120733;27;20070;-47
2022/04/22 03:38:05;;;;;;;22.48;17.63;;;;;;;5.57;100.00;94919.44;5121989;27;20099;-45
2022/04/22 03:40:33;;;;;;;22.08;17.60;;;;;;;5.50;100.00;94924.44;5116889;27;20063;-47
2022/04/22 03:43:02;;;;;;;22.88;18.10;;;;;;;5.40;100.00;94914.09;5125407;27;20071;-46
2022/04/22 03:45:31;;;;;;;23.33;17.83;;;;;;;5.52;100.00;94912.06;5098318;27;20079;-44
2022/04/22 03:47:59;;;;;;;23.88;17.75;;;;;;;5.45;100.00;94918.88;5119987;27;20070;-45
2022/04/22 03:50:28;;;;;;;27.75;18.80;;;;;;;5.48;100.00;94908.09;5129536;27;20071;-49
2022/04/22 03:52:57;;;;;;;24.27;17.95;;;;;;;5.51;100.00;94904.38;5125241;27;20055;-45
2022/04/22 03:55:26;;;;;;;22.60;17.70;;;;;;;5.50;100.00;94902.72;5122869;27;20081;-52
2022/04/22 03:58:12;;;;;;;27.70;18.53;;;;;;;5.55;100.00;94905.72;5125923;27;20067;-44
2022/04/22 04:00:42;;;;;;;27.52;18.70;;;;;;;5.56;100.00;94900.31;5118290;27;20499;-43
2022/04/22 04:03:11;;;;;;;27.88;19.58;;;;;;;5.63;100.00;94895.28;5127276;27;20069;-46
2022/04/22 04:05:40;;;;;;;24.52;18.60;;;;;;;5.66;100.00;94887.16;5121678;27;20126;-47
2022/04/22 04:08:11;;;;;;;24.40;18.40;;;;;;;5.53;100.00;94879.69;5117863;27;20070;-45
2022/04/22 04:16:24;;;;;;;25.00;19.17;;;;;;;5.63;100.00;94882.22;5121030;27;20469;-48
2022/04/22 04:23:14;;;;;;;25.65;19.15;;;;;;;5.55;100.00;94882.19;5119333;27;20526;-50
2022/04/22 04:24:27;;;;;;;24.27;18.85;;;;;;;5.56;100.00;94876.78;5120368;27;20096;-47
2022/04/22 04:26:58;;;;;;;24.67;19.67;;;;;;;5.65;100.00;94875.06;5117194;27;20071;-48
2022/04/22 04:29:27;;;;;;;28.42;20.80;;;;;;;5.72;100.00;94870.84;5114852;27;20074;-51
2022/04/22 04:31:56;;;;;;;25.52;19.27;;;;;;;5.77;100.00;94873.81;5115687;27;20556;-49
2022/04/22 04:34:25;;;;;;;25.67;20.00;;;;;;;5.85;100.00;94879.09;5119017;27;20067;-49
2022/04/22 04:36:54;;;;;;;26.13;19.15;;;;;;;5.82;100.00;94875.97;5121871;27;20070;-50
2022/04/22 04:39:22;;;;;;;25.27;18.58;;;;;;;5.91;100.00;94883.69;5121688;27;20513;-51
2022/04/22 04:41:53;;;;;;;26.50;18.95;;;;;;;5.90;100.00;94889.91;5125655;27;20074;-49
2022/04/22 04:44:24;;;;;;;25.00;20.02;;;;;;;6.11;100.00;94891.38;5099381;28;20046;-46
2022/04/22 04:46:53;;;;;;;24.92;19.10;;;;;;;6.12;100.00;94887.78;5119422;27;20059;-48
2022/04/22 04:49:22;;;;;;;26.13;19.60;;;;;;;6.24;100.00;94891.75;5123879;27;20043;-47
2022/04/22 04:51:51;;;;;;;25.15;19.33;;;;;;;6.53;100.00;94891.38;5120611;27;20091;-48
2022/04/22 04:54:20;;;;;;;25.95;19.77;;;;;;;6.72;100.00;94895.53;5120030;27;20083;-52
2022/04/22 04:56:50;;;;;;;25.77;21.13;;;;;;;7.11;100.00;94894.97;5117917;27;20791;-44
2022/04/22 04:59:18;;;;;;;26.50;21.33;;;;;;;8.14;100.00;94890.00;5121869;27;20075;-48
2022/04/22 05:01:48;;;;;;;24.25;20.52;;;;;;;8.73;100.00;94884.38;5117738;27;21261;-44
2022/04/22 05:04:17;;;;;;;25.50;20.38;;;;;;;9.30;100.00;94876.16;5116461;27;21876;-49
2022/04/22 05:06:46;;;;;;;21.98;17.15;;;;;;;9.58;100.00;94875.59;5117544;27;20110;-52
2022/04/22 05:09:14;;;;;;;21.33;17.60;;;;;;;9.66;100.00;94880.78;5119880;27;20067;-46
2022/04/22 05:11:43;;;;;;;20.27;16.52;;;;;;;9.52;100.00;94883.19;5099799;28;20062;-51
2022/04/22 05:14:11;;;;;;;19.50;16.90;;;;;;;9.33;100.00;94881.06;5119457;27;20069;-44
2022/04/22 05:16:39;;;;;;;22.45;17.17;;;;;;;9.61;100.00;94878.69;5123713;27;20075;-45
2022/04/22 05:19:09;;;;;;;22.00;17.55;;;;;;;9.55;100.00;94878.59;5123675;27;20553;-50
2022/04/22 05:21:38;;;;;;;20.23;16.83;;;;;;;9.91;100.00;94881.38;5127072;27;20079;-44
2022/04/22 05:24:07;;;;;;;21.63;17.88;;;;;;;9.45;100.00;94877.00;5117770;27;20485;-46
2022/04/22 05:26:35;;;;;;;22.08;17.40;;;;;;;9.64;100.00;94880.97;5098948;27;20062;-44
2022/04/22 05:29:04;;;;;;;22.13;17.45;;;;;;;9.15;100.00;94876.09;5120498;27;20071;-46
2022/04/22 05:34:19;;;;;;;24.13;18.20;;;;;;;8.65;100.00;94879.16;5122290;27;20433;-49
2022/04/22 05:36:48;;;;;;;24.40;18.48;;;;;;;8.78;100.00;94884.69;5122008;27;20078;-46
2022/04/22 05:39:16;;;;;;;23.40;18.90;;;;;;;8.72;100.00;94886.19;5120757;27;20078;-48
2022/04/22 05:41:44;;;;;;;20.83;17.17;;;;;;;8.21;100.00;94888.31;5119169;27;20063;-45
2022/04/22 05:44:13;;;;;;;23.42;18.48;;;;;;;8.49;100.00;94886.13;5121628;27;20063;-47
2022/04/22 05:46:41;;;;;;;24.23;18.45;;;;;;;8.56;100.00;94881.81;5122251;27;20067;-46
2022/04/22 05:49:10;;;;;;;26.35;20.33;;;;;;;8.45;100.00;94879.56;5120926;27;20081;-48
2022/04/22 05:51:40;;;;;;;23.58;19.00;;;;;;;8.48;100.00;94873.97;5120456;27;20086;-46
2022/04/22 05:54:09;;;;;;;23.20;18.80;;;;;;;8.52;100.00;94877.09;5123001;27;21555;-45
2022/04/22 05:56:37;;;;;;;22.98;18.88;;;;;;;8.78;100.00;94877.63;5120532;27;20082;-46
2022/04/22 05:59:06;;;;;;;21.55;17.63;;;;;;;8.38;100.00;94869.94;5123244;27;20043;-56
2022/04/22 06:01:35;;;;;;;23.27;17.83;;;;;;;8.35;100.00;94875.47;5126681;27;20066;-50
2022/04/22 06:04:04;;;;;;;24.75;17.95;;;;;;;8.44;100.00;94871.88;5127945;27;20043;-48
2022/04/22 06:06:33;;;;;;;24.13;19.50;;;;;;;8.46;100.00;94869.88;5120638;27;20067;-48
2022/04/22 06:11:56;;;;;;;24.33;18.52;;;;;;;8.62;100.00;94869.81;5126173;27;20066;-45
2022/04/22 06:14:24;;;;;;;22.67;19.77;;;;;;;8.49;100.00;94864.28;5127412;27;20050;-49
2022/04/22 06:16:52;;;;;;;27.92;18.13;;;;;;;8.54;100.00;94873.31;5116323;27;20043;-48
2022/04/22 06:19:21;;;;;;;21.83;18.25;;;;;;;8.78;100.00;94876.81;5122772;27;20074;-53
2022/04/22 06:21:49;;;;;;;23.00;17.25;;;;;;;9.07;100.00;94878.75;5118258;27;20494;-46
2022/04/22 06:24:19;;;;;;;23.38;17.90;;;;;;;8.99;100.00;94879.63;5121834;27;20078;-47
2022/04/22 06:26:47;;;;;;;22.48;17.15;;;;;;;8.85;100.00;94876.94;5123703;27;20071;-44
2022/04/22 06:29:16;;;;;;;22.38;18.52;;;;;;;9.07;100.00;94873.50;5117486;27;20074;-47
2022/04/22 06:31:45;;;;;;;22.95;17.95;;;;;;;9.13;100.00;94869.38;5102600;27;20066;-48
2022/04/22 06:34:13;;;;;;;23.17;17.05;;;;;;;9.12;100.00;94867.72;5120411;27;20067;-43
2022/04/22 06:36:42;;;;;;;18.65;14.38;;;;;;;8.77;100.00;94873.38;5119404;27;20075;-47
2022/04/22 06:39:11;;;;;;;21.88;16.17;;;;;;;9.00;100.00;94869.94;5120953;27;20071;-44
2022/04/22 06:47:16;;;;;;;18.92;15.25;;;;;;;9.27;100.00;94860.72;5119049;27;20078;-45
2022/04/22 06:49:45;;;;;;;19.70;16.42;;;;;;;9.60;100.00;94857.81;5120694;27;20067;-45
2022/04/22 06:52:14;;;;;;;21.20;16.75;;;;;;;9.42;100.00;94866.03;5122741;27;20067;-44
2022/04/22 06:54:44;;;;;;;21.67;16.25;;;;;;;9.41;100.00;94859.94;5101557;27;20066;-49
2022/04/22 06:57:15;;;;;;;21.30;16.77;;;;;;;9.74;100.00;94862.31;5119360;27;20083;-49
2022/04/22 06:59:43;;;;;;;;;;;;;;;9.86;100.00;94852.16;5116821;27;20074;-46
2022/04/22 07:02:12;;;;;;;19.23;15.50;;;;;;;9.65;100.00;94852.84;5115291;27;20408;-47
2022/04/22 07:04:41;;;;;;;18.00;15.15;;;;;;;9.83;100.00;94855.13;5121216;27;20067;-44
2022/04/22 07:07:10;;;;;;;22.08;15.98;;;;;;;9.81;100.00;94863.22;5120205;27;20063;-44
2022/04/22 07:09:40;;;;;;;17.80;15.85;;;;;;;9.98;100.00;94856.81;5123124;27;20116;-47
2022/04/22 07:12:10;;;;;;;22.90;16.13;;;;;;;9.87;100.00;94854.59;5119551;27;20330;-44
2022/04/22 07:14:42;;;;;;;20.80;15.98;;;;;;;10.00;100.00;94851.34;5120906;27;20086;-47
2022/04/22 07:17:11;;;;;;;17.58;15.25;;;;;;;9.96;100.00;94855.34;5119647;27;20063;-47
2022/04/22 07:19:41;;;;;;;22.92;15.02;;;;;;;10.29;100.00;94847.94;5118109;27;20496;-49
2022/04/22 07:22:11;;;;;;;45.97;15.57;;;;;;;10.21;100.00;94848.81;5117956;27;20062;-47
2022/04/22 07:24:39;;;;;;;19.97;16.17;;;;;;;10.27;100.00;94851.75;5121233;27;20165;-46
2022/04/22 07:27:08;;;;;;;23.65;15.73;;;;;;;10.65;100.00;94847.16;5119169;27;20068;-49
2022/04/22 07:29:37;;;;;;;23.35;15.45;;;;;;;11.04;100.00;94841.50;5119566;27;20059;-44
2022/04/22 07:32:08;;;;;;;20.23;15.77;;;;;;;10.73;100.00;94840.97;5128125;27;20073;-51
2022/04/22 07:34:36;;;;;;;18.25;14.60;;;;;;;11.05;100.00;94837.88;5127464;27;20094;-44
2022/04/22 07:37:09;;;;;;;20.25;15.15;;;;;;;11.16;100.00;94829.47;5129976;27;20066;-45
2022/04/22 07:39:38;;;;;;;21.55;14.30;;;;;;;10.94;100.00;94830.44;5126989;27;20074;-47
2022/04/22 07:42:08;;;;;;;19.50;14.50;;;;;;;11.16;100.00;94831.28;5121071;27;20308;-44
2022/04/22 07:47:25;;;;;;;17.40;14.05;;;;;;;11.49;100.00;94828.94;5122891;27;20070;-45
2022/04/22 07:49:54;;;;;;;17.23;14.07;;;;;;;11.45;100.00;94825.06;5126087;27;20743;-47
2022/04/22 07:52:25;;;;;;;17.30;14.25;;;;;;;11.76;100.00;94826.50;5122767;27;20063;-45
2022/04/22 07:54:54;;;;;;;20.90;14.10;;;;;;;11.78;100.00;94821.88;5129055;27;20086;-43
2022/04/22 07:57:22;;;;;;;17.10;13.30;;;;;;;11.61;100.00;94824.78;5119667;27;20080;-46
2022/04/22 07:59:51;;;;;;;17.58;14.00;;;;;;;11.83;100.00;94822.91;5117359;27;20176;-44
2022/04/22 08:02:19;;;;;;;15.32;13.55;;;;;;;11.82;100.00;94816.00;5121907;27;20112;-46
2022/04/22 08:04:49;;;;;;;16.75;13.50;;;;;;;12.03;100.00;94819.63;5125759;27;20081;-43
2022/04/22 08:07:18;;;;;;;16.33;13.00;;;;;;;12.07;100.00;94819.03;5134099;27;20062;-47
2022/04/22 08:09:51;;;;;;;15.00;12.55;;;;;;;12.11;100.00;94822.09;5105784;27;20074;-50
2022/04/22 08:12:19;;;;;;;15.02;13.05;;;;;;;11.88;100.00;94820.56;5129910;27;20085;-44
2022/04/22 08:14:51;;;;;;;19.40;13.32;;;;;;;12.38;100.00;94807.22;5123471;27;20067;-47
2022/04/22 08:17:20;;;;;;;15.90;13.02;;;;;;;11.92;100.00;94820.97;5125236;27;20070;-51
2022/04/22 08:19:50;;;;;;;14.63;13.00;;;;;;;12.24;100.00;94814.25;5122413;27;20063;-43
2022/04/22 08:22:19;;;;;;;15.97;12.37;;;;;;;12.31;100.00;94814.28;5120934;27;20066;-45
2022/04/22 08:24:47;;;;;;;13.88;12.40;;;;;;;12.48;100.00;94820.06;5124606;27;20090;-44
2022/04/22 08:27:16;;;;;;;14.25;12.63;;;;;;;13.00;100.00;94816.78;5125074;27;20082;-49
2022/04/22 08:29:45;;;;;;;18.13;12.70;;;;;;;12.81;100.00;94812.28;5123257;27;20077;-44
2022/04/22 08:32:14;;;;;;;13.70;11.75;;;;;;;12.98;100.00;94810.88;5122290;27;20442;-47
2022/04/22 08:34:43;;;;;;;15.05;11.90;;;;;;;12.99;100.00;94804.56;5120545;27;20066;-47
2022/04/22 08:37:12;;;;;;;12.43;11.10;;;;;;;12.88;100.00;94813.09;5120871;27;20473;-46
2022/04/22 08:39:41;;;;;;;12.60;11.25;;;;;;;12.75;100.00;94813.88;5123980;27;20079;-46
2022/04/22 08:42:11;;;;;;;12.80;10.35;;;;;;;13.21;100.00;94820.28;5123987;27;20086;-44
2022/04/22 08:44:59;;;;;;;13.23;11.60;;;;;;;12.48;100.00;94804.19;5123614;27;20051;-44
2022/04/22 08:50:16;;;;;;;11.35;10.15;;;;;;;13.30;100.00;94814.63;5120539;27;20119;-48
2022/04/22 08:52:54;;;;;;;14.00;11.20;;;;;;;12.91;100.00;94825.94;5122811;27;20067;-47
2022/04/22 08:55:24;;;;;;;12.32;10.60;;;;;;;13.61;100.00;94810.59;5119063;27;20516;-47
2022/04/22 08:57:54;;;;;;;13.70;10.68;;;;;;;13.26;100.00;94809.97;5117673;27;20567;-44
2022/04/22 09:00:27;;;;;;;12.50;10.82;;;;;;;13.18;100.00;94818.88;5122000;27;20059;-45
2022/04/22 09:02:55;;;;;;;11.73;10.27;;;;;;;13.68;100.00;94805.28;5130067;27;20457;-46
2022/04/22 09:05:25;;;;;;;12.57;10.57;;;;;;;13.77;100.00;94802.22;5129326;27;20141;-49
2022/04/22 09:07:55;;;;;;;18.05;9.77;;;;;;;13.92;100.00;94809.13;5125327;27;20070;-51
2022/04/22 09:10:23;;;;;;;15.05;10.15;;;;;;;14.24;100.00;94795.00;5131904;27;20075;-45
2022/04/22 09:12:53;;;;;;;12.05;10.00;;;;;;;13.72;100.00;94795.91;5128820;27;20085;-46
2022/04/22 09:15:22;;;;;;;13.07;10.00;;;;;;;14.07;100.00;94801.75;5125594;27;20070;-44
2022/04/22 09:17:57;;;;;;;12.45;11.13;;;;;;;14.07;100.00;94804.41;5125774;27;20456;-45
2022/04/22 09:20:30;;;;;;;15.98;10.52;;;;;;;13.81;100.00;94801.81;5126002;27;20059;-47
2022/04/22 09:22:59;;;;;;;11.77;10.65;;;;;;;13.76;100.00;94805.06;5129579;27;20059;-46
2022/04/22 09:25:28;;;;;;;15.10;10.60;;;;;;;13.81;100.00;94805.28;5134597;27;20067;-47
2022/04/22 09:28:09;;;;;;;14.43;10.85;;;;;;;13.93;100.00;94797.50;5126782;27;20082;-49
2022/04/22 09:30:37;;;;;;;;;;;;;;;13.78;100.00;94803.03;5127883;27;20083;-46
2022/04/22 09:33:09;;;;;;;13.38;11.15;;;;;;;13.57;100.00;94801.44;5127903;27;21931;-45
2022/04/22 09:43:59;;;;;;;12.30;10.95;;;;;;;14.08;100.00;94799.97;5131378;27;20058;-45
2022/04/22 09:46:30;;;;;;;12.45;11.15;;;;;;;14.07;100.00;94798.31;5123671;27;20618;-49
2022/04/22 09:48:59;;;;;;;12.80;11.40;;;;;;;14.34;100.00;94789.25;5123894;27;20477;-44
2022/04/22 09:51:30;;;;;;;18.88;11.57;;;;;;;14.35;100.00;94795.38;5103966;27;20143;-50
2022/04/22 09:54:05;;;;;;;13.48;12.07;;;;;;;14.66;100.00;94792.88;5120876;27;20122;-47
2022/04/22 09:56:33;;;;;;;13.57;11.63;;;;;;;15.14;100.00;94780.94;5125256;27;20066;-45
2022/04/22 09:59:22;;;;;;;14.65;11.60;;;;;;;14.86;100.00;94795.41;5121649;27;20086;-52
2022/04/22 10:01:51;;;;;;;14.82;12.30;;;;;;;14.55;100.00;94790.03;5126314;27;20461;-49
2022/04/22 10:04:31;;;;;;;13.63;12.07;;;;;;;14.70;100.00;94786.09;5121502;27;20058;-47
2022/04/22 10:07:01;;;;;;;13.25;11.77;;;;;;;15.01;100.00;94773.91;5127302;27;20077;-46
2022/04/22 10:09:33;;;;;;;13.77;12.10;;;;;;;14.99;100.00;94783.09;5108639;27;20074;-45
2022/04/22 10:12:06;;;;;;;13.57;12.13;;;;;;;15.14;100.00;94773.81;5127509;27;20063;-48
2022/04/22 10:14:39;;;;;;;13.30;11.95;;;;;;;15.33;100.00;94773.91;5123144;27;20082;-47
2022/04/22 10:17:07;;;;;;;14.30;12.18;;;;;;;14.98;100.00;94784.13;5124843;27;20538;-45
2022/04/22 10:19:37;;;;;;;14.07;11.93;;;;;;;15.22;100.00;94777.25;5124333;27;20078;-47
2022/04/22 10:22:07;;;;;;;14.25;11.57;;;;;;;15.21;100.00;94781.75;5101106;27;20055;-48
2022/04/22 10:24:37;;;;;;;14.07;12.60;;;;;;;15.60;100.00;94783.28;5126350;27;20165;-50
2022/04/22 10:27:08;;;;;;;13.65;12.25;;;;;;;15.66;100.00;94774.47;5124665;27;20382;-54
2022/04/22 10:29:37;;;;;;;13.88;11.75;;;;;;;15.33;100.00;94765.94;5126217;27;20067;-47
2022/04/22 10:32:08;;;;;;;14.73;11.93;;;;;;;15.53;100.00;94779.06;5123776;27;20062;-45
2022/04/22 10:34:40;;;;;;;13.60;12.03;;;;;;;15.58;100.00;94780.03;5126607;27;20059;-51
2022/04/22 10:37:17;;;;;;;12.98;11.57;;;;;;;15.06;100.00;94775.91;5126558;27;20484;-49
2022/04/22 10:39:51;;;;;;;15.23;11.95;;;;;;;15.41;100.00;94777.09;5131241;27;20074;-47
2022/04/22 10:42:31;;;;;;;13.68;12.23;;;;;;;15.59;100.00;94775.56;5125134;27;20083;-49
2022/04/22 10:47:48;;;;;;;14.43;12.32;;;;;;;15.40;100.00;94772.00;5128843;27;20050;-50
2022/04/22 10:50:24;;;;;;;13.35;11.23;;;;;;;15.81;100.00;94760.84;5130605;27;20066;-45
2022/04/22 10:53:03;;;;;;;12.63;11.32;;;;;;;15.14;100.00;94771.16;5127545;27;20067;-50
2022/04/22 10:55:35;;;;;;;13.65;11.93;;;;;;;14.83;100.00;94774.63;5125227;27;20059;-52
2022/04/22 10:58:23;;;;;;;13.70;12.40;;;;;;;14.94;100.00;94773.13;5105344;27;20107;-49
2022/04/22 11:00:57;;;;;;;14.30;11.95;;;;;;;15.09;100.00;94783.44;5123584;27;20079;-49
2022/04/22 11:03:27;;;;;;;13.60;11.73;;;;;;;15.60;100.00;94777.97;5127738;27;20075;-43
2022/04/22 11:06:00;;;;;;;14.95;11.93;;;;;;;15.47;100.00;94777.25;5124868;27;20067;-44
2022/04/22 11:08:31;;;;;;;14.00;12.25;;;;;;;15.17;100.00;94777.88;5130703;27;20066;-48
2022/04/22 11:11:10;;;;;;;14.52;12.13;;;;;;;15.54;100.00;94770.88;5102806;27;20074;-47
2022/04/22 11:13:50;;;;;;;12.90;11.57;;;;;;;15.51;100.00;94763.31;5126021;27;20429;-46
2022/04/22 11:16:28;;;;;;;13.13;11.65;;;;;;;15.65;100.00;94772.81;5126588;27;20066;-48
2022/04/22 11:19:28;;;;;;;12.40;10.70;;;;;;;15.25;100.00;94772.31;5125001;27;20070;-44
2022/04/22 11:21:58;;;;;;;14.70;12.40;;;;;;;15.80;100.00;94774.38;5125059;27;20094;-49
2022/04/22 11:24:28;;;;;;;13.70;11.88;;;;;;;15.64;100.00;94773.84;5123878;27;20082;-44
2022/04/22 11:27:10;;;;;;;13.20;11.88;;;;;;;15.80;100.00;94769.88;5124162;27;20071;-46
2022/04/22 11:29:39;;;;;;;14.13;12.75;;;;;;;16.15;100.00;94779.97;5125798;27;20644;-46
2022/04/22 11:32:13;;;;;;;14.70;12.80;;;;;;;16.20;100.00;94777.44;5127683;27;20133;-44
2022/04/22 11:35:11;;;;;;;18.17;12.82;;;;;;;15.88;100.00;94779.41;5122564;27;20063;-43
2022/04/22 11:37:39;;;;;;;16.40;12.35;;;;;;;16.31;100.00;94775.88;5123608;27;20070;-49
2022/04/22 11:40:09;;;;;;;15.18;12.98;;;;;;;16.54;100.00;94772.56;5127391;27;20055;-53
2022/04/22 11:42:45;;;;;;;13.98;11.95;;;;;;;16.20;100.00;94771.31;5126866;27;20082;-46
2022/04/22 11:45:15;;;;;;;14.57;12.05;;;;;;;16.41;100.00;94775.38;5125546;27;20478;-50
2022/04/22 11:47:44;;;;;;;15.70;13.10;;;;;;;16.31;100.00;94775.88;5126893;27;20814;-44
2022/04/22 11:50:19;;;;;;;15.85;12.55;;;;;;;16.17;100.00;94777.88;5123323;27;20548;-48
2022/04/22 11:52:56;;;;;;;15.70;12.10;;;;;;;16.33;100.00;94779.97;5122006;27;20066;-45
2022/04/22 11:55:25;;;;;;;13.13;11.73;;;;;;;16.11;100.00;94776.94;5122821;27;20446;-46
2022/04/22 11:57:55;;;;;;;14.60;12.95;;;;;;;16.34;100.00;94775.44;5128246;27;20039;-48
2022/04/22 12:05:58;;;;;;;13.27;11.93;;;;;;;16.25;100.00;94768.81;5127840;27;20081;-47
2022/04/22 12:08:26;;;;;;;13.80;12.23;;;;;;;16.37;100.00;94775.81;5120306;27;20533;-47
2022/04/22 12:10:55;;;;;;;13.75;12.30;;;;;;;16.68;100.00;94775.88;5126588;27;20077;-48
2022/04/22 12:13:27;;;;;;;14.15;12.38;;;;;;;16.68;100.00;94778.53;5124668;27;20131;-48
2022/04/22 12:15:56;;;;;;;18.80;12.38;;;;;;;16.34;100.00;94776.28;5124352;27;20086;-48
2022/04/22 12:18:33;;;;;;;14.27;12.55;;;;;;;16.36;100.00;94765.41;5129844;27;20088;-49
2022/04/22 12:21:01;;;;;;;14.80;12.48;;;;;;;16.36;100.00;94768.88;5127176;27;20074;-51